Time;durP1;ratioP1;P1;durP2;ratioP2;P2;SDS_P1;SDS_P2;PMS_P1;PMS_P2;Temp;Humidity;BMP_temperature;BMP_pressure;BME280_temperature;BME280_humidity;BME280_pressure;Samples;Min_cycle;Max_cycle;Signal;HPM_P1;HPM_P2
2022/06/26 00:01:32;;;;;;;15.80;13.20;;;;;;;;;;4990823;28;20057;-85
2022/06/26 00:04:04;;;;;;;20.75;16.25;;;;;;;;;;5011311;28;20129;-85
2022/06/26 00:06:30;;;;;;;19.77;15.55;;;;;;;;;;4993245;28;20046;-85
2022/06/26 00:08:56;;;;;;;26.90;17.48;;;;;;;;;;4987818;28;20449;-85
2022/06/26 00:11:22;;;;;;;16.77;13.63;;;;;;;;;;4988293;28;20117;-85
2022/06/26 00:13:48;;;;;;;21.50;15.40;;;;;;;;;;5010738;28;20512;-85
2022/06/26 00:16:14;;;;;;;18.73;16.30;;;;;;;;;;5009684;28;20080;-85
2022/06/26 00:18:41;;;;;;;18.92;15.10;;;;;;;;;;5010098;28;20171;-85
2022/06/26 00:21:07;;;;;;;18.23;15.40;;;;;;;;;;5010256;28;20072;-85
2022/06/26 00:23:34;;;;;;;17.70;15.35;;;;;;;;;;5009024;28;20099;-85
2022/06/26 00:26:00;;;;;;;17.63;14.40;;;;;;;;;;4977050;28;20092;-85
2022/06/26 00:28:26;;;;;;;21.20;15.15;;;;;;;;;;4994179;28;20089;-85
2022/06/26 00:30:52;;;;;;;22.85;15.98;;;;;;;;;;5015610;28;20081;-85
2022/06/26 00:33:18;;;;;;;22.17;15.55;;;;;;;;;;4993476;28;20604;-85
2022/06/26 00:35:44;;;;;;;20.50;15.77;;;;;;;;;;5009474;28;20041;-85
2022/06/26 00:38:10;;;;;;;27.52;19.63;;;;;;;;;;5010174;28;20172;-85
2022/06/26 00:40:38;;;;;;;25.90;17.33;;;;;;;;;;5010752;28;20121;-85
2022/06/26 00:43:05;;;;;;;16.80;9.93;;;;;;;;;;5009142;28;20045;-85
2022/06/26 00:45:31;;;;;;;25.13;13.77;;;;;;;;;;4992195;28;20710;-85
2022/06/26 00:47:57;;;;;;;21.13;12.38;;;;;;;;;;4992621;28;20471;-86
2022/06/26 00:50:23;;;;;;;22.20;12.73;;;;;;;;;;5010449;28;20042;-86
2022/06/26 00:52:50;;;;;;;20.98;11.23;;;;;;;;;;5007658;28;20037;-86
2022/06/26 00:55:16;;;;;;;19.05;9.82;;;;;;;;;;5009527;28;20041;-85
2022/06/26 00:57:42;;;;;;;17.10;9.70;;;;;;;;;;4992061;28;20057;-86
2022/06/26 01:00:10;;;;;;;19.40;9.68;;;;;;;;;;5005217;28;20960;-86
2022/06/26 01:02:36;;;;;;;15.98;9.48;;;;;;;;;;4991690;28;20085;-86
2022/06/26 01:05:02;;;;;;;20.90;10.57;;;;;;;;;;5005983;28;20042;-86
2022/06/26 01:07:28;;;;;;;16.92;8.95;;;;;;;;;;5005729;28;20475;-86
2022/06/26 01:09:54;;;;;;;17.38;8.90;;;;;;;;;;4992932;28;20045;-86
2022/06/26 01:12:21;;;;;;;18.92;9.50;;;;;;;;;;4992325;28;20128;-86
2022/06/26 01:14:48;;;;;;;19.45;8.65;;;;;;;;;;4974882;28;20053;-86
2022/06/26 01:17:14;;;;;;;18.95;8.32;;;;;;;;;;4974973;28;20092;-86
2022/06/26 01:19:40;;;;;;;14.48;8.43;;;;;;;;;;5002946;28;20142;-86
2022/06/26 01:22:06;;;;;;;17.67;7.72;;;;;;;;;;4990725;28;20042;-86
2022/06/26 01:24:32;;;;;;;14.93;7.90;;;;;;;;;;4990826;28;20103;-85
2022/06/26 01:27:00;;;;;;;13.68;8.43;;;;;;;;;;4999040;28;20042;-86
2022/06/26 01:29:26;;;;;;;15.48;8.70;;;;;;;;;;5009415;28;20054;-86
2022/06/26 01:31:52;;;;;;;14.32;8.32;;;;;;;;;;4992323;28;20254;-86
2022/06/26 01:34:19;;;;;;;15.00;7.75;;;;;;;;;;5009663;28;20056;-86
2022/06/26 01:36:45;;;;;;;16.05;8.75;;;;;;;;;;5006601;28;20399;-86
2022/06/26 01:39:11;;;;;;;12.23;8.32;;;;;;;;;;4974198;28;20180;-86
2022/06/26 01:41:37;;;;;;;16.63;8.90;;;;;;;;;;5007754;28;20136;-86
2022/06/26 01:44:07;;;;;;;12.15;8.50;;;;;;;;;;5009331;28;20475;-86
2022/06/26 01:46:33;;;;;;;14.00;9.15;;;;;;;;;;5004804;28;20103;-86
2022/06/26 01:48:59;;;;;;;14.15;9.38;;;;;;;;;;5008655;28;20045;-86
2022/06/26 01:51:25;;;;;;;16.45;9.10;;;;;;;;;;4991811;28;20046;-85
2022/06/26 01:53:51;;;;;;;14.73;8.30;;;;;;;;;;5009628;28;20070;-86
2022/06/26 01:56:17;;;;;;;14.55;8.70;;;;;;;;;;4990872;28;20498;-86
2022/06/26 01:58:44;;;;;;;16.05;8.82;;;;;;;;;;4975725;28;20077;-86
2022/06/26 02:01:10;;;;;;;12.90;8.75;;;;;;;;;;5007281;28;20053;-86
2022/06/26 02:03:36;;;;;;;16.15;9.02;;;;;;;;;;4992722;28;20057;-86
2022/06/26 02:06:02;;;;;;;13.05;8.55;;;;;;;;;;5008100;28;20573;-86
2022/06/26 02:08:28;;;;;;;13.88;8.43;;;;;;;;;;4990460;28;20134;-86
2022/06/26 02:13:40;;;;;;;10.13;7.00;;;;;;;;;;5006774;28;20045;-85
2022/06/26 02:16:08;;;;;;;8.40;6.68;;;;;;;;;;5010915;28;20053;-86
2022/06/26 02:18:34;;;;;;;9.38;7.22;;;;;;;;;;4979896;28;20065;-86
2022/06/26 02:21:01;;;;;;;12.20;7.22;;;;;;;;;;4994595;28;20112;-86
2022/06/26 02:23:28;;;;;;;11.65;7.20;;;;;;;;;;4993256;28;20171;-86
2022/06/26 02:25:54;;;;;;;7.80;6.55;;;;;;;;;;5011214;28;20670;-86
2022/06/26 02:28:20;;;;;;;7.45;6.50;;;;;;;;;;4990795;28;20057;-86
2022/06/26 02:30:46;;;;;;;9.10;6.53;;;;;;;;;;4991493;28;20042;-86
2022/06/26 02:33:12;;;;;;;8.88;6.40;;;;;;;;;;5012025;28;20046;-86
2022/06/26 02:35:38;;;;;;;9.55;7.68;;;;;;;;;;4976809;28;20042;-86
2022/06/26 02:38:04;;;;;;;12.70;7.10;;;;;;;;;;5008456;28;20467;-86
2022/06/26 02:40:31;;;;;;;13.07;7.00;;;;;;;;;;4989938;28;20045;-85
2022/06/26 02:42:58;;;;;;;9.63;6.75;;;;;;;;;;4993281;28;20108;-85
2022/06/26 02:45:25;;;;;;;11.65;7.00;;;;;;;;;;4994162;28;20049;-85
2022/06/26 02:47:51;;;;;;;8.93;7.22;;;;;;;;;;5013479;28;20038;-85
2022/06/26 02:50:17;;;;;;;9.57;6.55;;;;;;;;;;4994931;28;20046;-86
2022/06/26 02:52:44;;;;;;;8.63;6.15;;;;;;;;;;4995327;28;20077;-86
2022/06/26 02:55:10;;;;;;;10.73;6.97;;;;;;;;;;4999751;28;20715;-86
2022/06/26 02:57:36;;;;;;;9.80;6.75;;;;;;;;;;4993356;28;20050;-86
2022/06/26 03:00:02;;;;;;;9.60;7.03;;;;;;;;;;5012070;28;20133;-85
2022/06/26 03:02:28;;;;;;;9.38;6.20;;;;;;;;;;5010820;28;20066;-86
2022/06/26 03:04:55;;;;;;;6.75;5.65;;;;;;;;;;5010968;28;20077;-86
2022/06/26 03:07:21;;;;;;;7.25;5.47;;;;;;;;;;4993364;28;20495;-86
2022/06/26 03:09:47;;;;;;;7.38;5.63;;;;;;;;;;4988256;28;20042;-86
2022/06/26 03:12:14;;;;;;;7.20;5.07;;;;;;;;;;4991995;28;20505;-86
2022/06/26 03:14:40;;;;;;;5.97;4.78;;;;;;;;;;4977435;28;20045;-86
2022/06/26 03:17:06;;;;;;;6.15;5.05;;;;;;;;;;4977956;28;20046;-87
2022/06/26 03:19:32;;;;;;;10.23;5.00;;;;;;;;;;4995616;28;20046;-86
2022/06/26 03:21:58;;;;;;;6.78;4.70;;;;;;;;;;4990553;28;20042;-86
2022/06/26 03:24:24;;;;;;;6.30;4.70;;;;;;;;;;5002629;28;20042;-86
2022/06/26 03:26:50;;;;;;;7.82;5.15;;;;;;;;;;5009940;28;20046;-86
2022/06/26 03:29:17;;;;;;;7.35;5.20;;;;;;;;;;4993759;28;20061;-86
2022/06/26 03:31:43;;;;;;;7.40;4.95;;;;;;;;;;5012791;28;20045;-86
2022/06/26 03:34:09;;;;;;;8.77;5.55;;;;;;;;;;4978400;28;20418;-86
2022/06/26 03:36:35;;;;;;;7.60;5.32;;;;;;;;;;5000060;28;20054;-86
2022/06/26 03:39:02;;;;;;;7.68;5.10;;;;;;;;;;4976840;28;20050;-86
2022/06/26 03:41:28;;;;;;;5.93;4.75;;;;;;;;;;5009674;28;20125;-86
2022/06/26 03:43:54;;;;;;;5.63;4.10;;;;;;;;;;5010925;28;20045;-86
2022/06/26 03:46:20;;;;;;;5.20;3.90;;;;;;;;;;5010603;28;20049;-86
2022/06/26 03:48:46;;;;;;;4.20;3.13;;;;;;;;;;5006533;28;20120;-86
2022/06/26 03:51:12;;;;;;;3.20;2.70;;;;;;;;;;4992054;28;20053;-86
2022/06/26 03:53:38;;;;;;;2.95;2.47;;;;;;;;;;4992849;28;20042;-86
2022/06/26 03:56:05;;;;;;;3.40;2.35;;;;;;;;;;5009916;28;20129;-86
2022/06/26 03:58:31;;;;;;;3.28;2.20;;;;;;;;;;4978116;28;20554;-86
2022/06/26 04:00:57;;;;;;;4.43;2.47;;;;;;;;;;5010307;28;20067;-86
2022/06/26 04:03:24;;;;;;;3.35;2.65;;;;;;;;;;4994735;28;20091;-86
2022/06/26 04:05:50;;;;;;;3.55;2.50;;;;;;;;;;4993123;28;20045;-85
2022/06/26 04:08:16;;;;;;;4.20;2.55;;;;;;;;;;5009275;28;20049;-86
2022/06/26 04:10:43;;;;;;;3.28;2.90;;;;;;;;;;4994026;28;20054;-86
2022/06/26 04:13:10;;;;;;;4.72;3.20;;;;;;;;;;4988909;28;20065;-86
2022/06/26 04:15:36;;;;;;;5.40;3.38;;;;;;;;;;4990889;28;20050;-86
2022/06/26 04:18:03;;;;;;;4.10;3.70;;;;;;;;;;5010027;28;20094;-86
2022/06/26 04:20:29;;;;;;;4.05;3.60;;;;;;;;;;5011255;28;20124;-86
2022/06/26 04:22:55;;;;;;;5.20;4.03;;;;;;;;;;5008219;28;20053;-86
2022/06/26 04:25:22;;;;;;;5.88;4.10;;;;;;;;;;4993467;28;20510;-86
2022/06/26 04:27:49;;;;;;;5.93;4.20;;;;;;;;;;5009193;28;20041;-86
2022/06/26 04:30:15;;;;;;;5.03;4.50;;;;;;;;;;5011085;28;20054;-83
2022/06/26 04:32:41;;;;;;;5.30;4.60;;;;;;;;;;4992701;28;20034;-83
2022/06/26 04:35:08;;;;;;;6.07;4.82;;;;;;;;;;5010340;28;20045;-83
2022/06/26 04:37:34;;;;;;;6.90;5.47;;;;;;;;;;4972950;28;20499;-83
2022/06/26 04:40:00;;;;;;;7.65;5.65;;;;;;;;;;4991240;28;20404;-83
2022/06/26 04:42:26;;;;;;;6.78;5.57;;;;;;;;;;4987622;28;20077;-84
2022/06/26 04:44:52;;;;;;;6.75;6.05;;;;;;;;;;4992064;28;20100;-83
2022/06/26 04:47:18;;;;;;;8.80;6.90;;;;;;;;;;4995091;28;20152;-84
2022/06/26 04:49:44;;;;;;;9.52;7.53;;;;;;;;;;5011016;28;20286;-86
2022/06/26 04:52:10;;;;;;;8.35;7.38;;;;;;;;;;5008692;28;20430;-86
2022/06/26 04:54:36;;;;;;;9.98;7.90;;;;;;;;;;4993198;28;20073;-86
2022/06/26 04:57:02;;;;;;;10.02;7.63;;;;;;;;;;4992337;28;20060;-86
2022/06/26 04:59:28;;;;;;;8.80;7.85;;;;;;;;;;4993150;28;20089;-86
2022/06/26 05:01:54;;;;;;;9.57;8.20;;;;;;;;;;4989316;28;20054;-86
2022/06/26 05:04:20;;;;;;;12.52;8.07;;;;;;;;;;5009067;28;20053;-86
2022/06/26 05:06:46;;;;;;;9.75;7.78;;;;;;;;;;4989229;28;20104;-86
2022/06/26 05:09:12;;;;;;;9.13;8.20;;;;;;;;;;5005933;28;20612;-85
2022/06/26 05:11:40;;;;;;;9.98;8.40;;;;;;;;;;4973673;28;20050;-85
2022/06/26 05:14:06;;;;;;;10.85;8.43;;;;;;;;;;4972921;28;20170;-85
2022/06/26 05:16:32;;;;;;;10.88;8.20;;;;;;;;;;5010455;28;20080;-86
2022/06/26 05:18:58;;;;;;;11.85;8.63;;;;;;;;;;4975715;28;20493;-86
2022/06/26 05:21:24;;;;;;;11.10;9.45;;;;;;;;;;5008402;28;20538;-85
2022/06/26 05:23:51;;;;;;;13.02;9.52;;;;;;;;;;4992872;28;20517;-86
2022/06/26 05:26:17;;;;;;;14.07;10.95;;;;;;;;;;5009139;28;20054;-86
2022/06/26 05:28:43;;;;;;;15.45;11.52;;;;;;;;;;5010354;28;20042;-86
2022/06/26 05:31:09;;;;;;;15.35;11.73;;;;;;;;;;5009481;28;20566;-86
2022/06/26 05:33:35;;;;;;;14.65;11.70;;;;;;;;;;5010422;28;20038;-86
2022/06/26 05:36:01;;;;;;;17.65;12.68;;;;;;;;;;5006846;28;20061;-86
2022/06/26 05:38:27;;;;;;;16.98;12.63;;;;;;;;;;4992940;28;20088;-86
2022/06/26 05:40:53;;;;;;;16.65;13.25;;;;;;;;;;4991826;28;20042;-86
2022/06/26 05:43:19;;;;;;;16.67;13.43;;;;;;;;;;4992528;28;20479;-86
2022/06/26 05:45:45;;;;;;;14.85;12.73;;;;;;;;;;4988607;28;20054;-85
2022/06/26 05:48:11;;;;;;;15.68;13.30;;;;;;;;;;4992532;28;20107;-86
2022/06/26 05:50:37;;;;;;;15.88;12.60;;;;;;;;;;4989767;28;20046;-85
2022/06/26 05:53:03;;;;;;;14.70;12.65;;;;;;;;;;4992203;28;20046;-86
2022/06/26 05:55:30;;;;;;;16.92;13.43;;;;;;;;;;4991824;28;20085;-85
2022/06/26 05:57:56;;;;;;;14.25;12.45;;;;;;;;;;4986627;28;20546;-86
2022/06/26 06:00:22;;;;;;;13.80;12.02;;;;;;;;;;4989906;28;20057;-86
2022/06/26 06:02:48;;;;;;;14.68;12.18;;;;;;;;;;4990483;28;20097;-86
2022/06/26 06:05:14;;;;;;;17.20;13.18;;;;;;;;;;4988309;28;20050;-87
2022/06/26 06:07:40;;;;;;;16.83;10.57;;;;;;;;;;4986617;28;20046;-86
2022/06/26 06:10:07;;;;;;;11.38;9.80;;;;;;;;;;4977124;28;20049;-85
2022/06/26 06:12:33;;;;;;;14.25;11.07;;;;;;;;;;4988965;28;20038;-84
2022/06/26 06:14:59;;;;;;;14.43;11.32;;;;;;;;;;4971975;28;20137;-85
2022/06/26 06:17:40;;;;;;;10.80;8.80;;;;;;;;;;4972873;28;20046;-85
2022/06/26 06:20:11;;;;;;;11.98;9.20;;;;;;;;;;4962422;28;20057;-86
2022/06/26 06:22:38;;;;;;;11.07;8.65;;;;;;;;;;4971125;28;20074;-85
2022/06/26 06:25:04;;;;;;;9.73;8.57;;;;;;;;;;4987050;28;20090;-85
2022/06/26 06:27:30;;;;;;;8.70;5.70;;;;;;;;;;4972379;28;20046;-86
2022/06/26 06:29:56;;;;;;;9.40;6.40;;;;;;;;;;4971162;28;20133;-85
2022/06/26 06:32:23;;;;;;;10.18;6.05;;;;;;;;;;4988755;28;20089;-86
2022/06/26 06:34:49;;;;;;;8.27;6.20;;;;;;;;;;4946768;28;20074;-86
2022/06/26 06:37:15;;;;;;;9.85;6.60;;;;;;;;;;4983865;28;20487;-86
2022/06/26 06:39:41;;;;;;;8.82;6.85;;;;;;;;;;4972800;28;20116;-86
2022/06/26 06:42:07;;;;;;;7.75;5.50;;;;;;;;;;4989018;28;20052;-86
2022/06/26 06:44:33;;;;;;;9.70;6.60;;;;;;;;;;4972390;28;20438;-86
2022/06/26 06:46:59;;;;;;;7.63;6.47;;;;;;;;;;4971498;28;20129;-86
2022/06/26 06:49:26;;;;;;;7.75;6.43;;;;;;;;;;4971802;28;20038;-86
2022/06/26 06:51:52;;;;;;;9.50;6.78;;;;;;;;;;4989603;28;20050;-86
2022/06/26 06:54:18;;;;;;;9.20;7.22;;;;;;;;;;4988979;28;20149;-87
2022/06/26 06:56:45;;;;;;;8.05;6.53;;;;;;;;;;4990185;28;20054;-85
2022/06/26 06:59:11;;;;;;;8.80;6.63;;;;;;;;;;4975820;28;20058;-85
2022/06/26 07:01:37;;;;;;;7.53;6.65;;;;;;;;;;4993932;28;20046;-85
2022/06/26 07:04:03;;;;;;;9.77;7.20;;;;;;;;;;4975333;28;20081;-84
2022/06/26 07:06:29;;;;;;;9.93;6.80;;;;;;;;;;4959087;28;20082;-86
2022/06/26 07:08:55;;;;;;;8.43;6.15;;;;;;;;;;4986462;28;20052;-86
2022/06/26 07:11:21;;;;;;;8.32;6.78;;;;;;;;;;5008536;28;20053;-85
2022/06/26 07:13:47;;;;;;;8.95;6.07;;;;;;;;;;4975347;28;20546;-85
2022/06/26 07:16:13;;;;;;;9.32;6.38;;;;;;;;;;4992893;28;20133;-85
2022/06/26 07:18:40;;;;;;;7.93;5.88;;;;;;;;;;4969505;28;20054;-85
2022/06/26 07:21:07;;;;;;;7.07;6.38;;;;;;;;;;4972099;28;20050;-85
2022/06/26 07:23:33;;;;;;;8.70;7.22;;;;;;;;;;4989278;28;20049;-85
2022/06/26 07:25:59;;;;;;;7.30;6.22;;;;;;;;;;4975101;28;20100;-85
2022/06/26 07:28:26;;;;;;;7.85;5.72;;;;;;;;;;4992836;28;20487;-85
2022/06/26 07:30:52;;;;;;;8.55;6.22;;;;;;;;;;4992856;28;20530;-85
2022/06/26 07:36:03;;;;;;;7.15;6.45;;;;;;;;;;4974364;28;20042;-85
2022/06/26 07:38:30;;;;;;;9.43;6.88;;;;;;;;;;4957602;28;20487;-86
2022/06/26 07:40:56;;;;;;;6.43;5.63;;;;;;;;;;4975380;28;20042;-86
2022/06/26 07:43:22;;;;;;;9.32;6.20;;;;;;;;;;4992445;28;20326;-88
2022/06/26 07:45:48;;;;;;;10.07;5.97;;;;;;;;;;4974679;28;20096;-86
2022/06/26 07:48:14;;;;;;;7.80;5.35;;;;;;;;;;4957439;28;20054;-85
2022/06/26 07:50:40;;;;;;;6.80;5.40;;;;;;;;;;4992620;28;20054;-85
2022/06/26 07:53:07;;;;;;;8.25;6.00;;;;;;;;;;4991227;28;20046;-85
2022/06/26 07:55:33;;;;;;;8.02;6.70;;;;;;;;;;4959106;28;20046;-85
2022/06/26 07:57:59;;;;;;;8.77;6.63;;;;;;;;;;4973869;28;20113;-85
2022/06/26 08:00:25;;;;;;;10.32;7.60;;;;;;;;;;4974141;28;20050;-85
2022/06/26 08:02:51;;;;;;;8.70;7.50;;;;;;;;;;4974414;28;20128;-85
2022/06/26 08:05:17;;;;;;;10.77;8.80;;;;;;;;;;4991807;28;20050;-85
2022/06/26 08:07:44;;;;;;;11.55;9.43;;;;;;;;;;4973326;28;20078;-85
2022/06/26 08:10:10;;;;;;;10.43;8.20;;;;;;;;;;4990819;28;20077;-85
2022/06/26 08:12:36;;;;;;;8.38;6.95;;;;;;;;;;4974777;28;20054;-85
2022/06/26 08:15:02;;;;;;;9.80;7.13;;;;;;;;;;4974136;28;20440;-85
2022/06/26 08:17:28;;;;;;;8.98;7.30;;;;;;;;;;4972785;28;20479;-85
2022/06/26 08:19:54;;;;;;;6.00;5.40;;;;;;;;;;4991613;28;20385;-85
2022/06/26 08:22:20;;;;;;;8.27;6.22;;;;;;;;;;4973185;28;20081;-85
2022/06/26 08:24:46;;;;;;;7.78;6.30;;;;;;;;;;4992130;28;20042;-85
2022/06/26 08:27:12;;;;;;;9.20;6.57;;;;;;;;;;4973930;28;20050;-85
2022/06/26 08:29:38;;;;;;;9.23;6.90;;;;;;;;;;4973243;28;20562;-85
2022/06/26 08:32:05;;;;;;;7.47;6.07;;;;;;;;;;4974046;28;20061;-84
2022/06/26 08:34:32;;;;;;;4.85;4.20;;;;;;;;;;4973902;28;20125;-84
2022/06/26 08:36:58;;;;;;;4.22;3.40;;;;;;;;;;4973303;28;20070;-85
2022/06/26 08:39:24;;;;;;;6.15;4.00;;;;;;;;;;4990673;28;20154;-85
2022/06/26 08:41:52;;;;;;;4.40;4.00;;;;;;;;;;4991910;28;20038;-85
2022/06/26 08:44:18;;;;;;;6.03;3.90;;;;;;;;;;4991041;28;20391;-84
2022/06/26 08:46:46;;;;;;;4.93;3.80;;;;;;;;;;4974085;28;20050;-85
2022/06/26 08:49:23;;;;;;;5.35;3.40;;;;;;;;;;4990396;28;20046;-84
2022/06/26 08:51:50;;;;;;;4.45;3.35;;;;;;;;;;4990440;28;20101;-85
2022/06/26 08:54:17;;;;;;;6.43;4.38;;;;;;;;;;4973491;28;20104;-85
2022/06/26 08:56:44;;;;;;;5.15;3.70;;;;;;;;;;4973922;28;20136;-85
2022/06/26 08:59:11;;;;;;;5.35;3.38;;;;;;;;;;4986000;28;20535;-85
2022/06/26 09:01:38;;;;;;;4.85;3.55;;;;;;;;;;4991394;28;20131;-85
2022/06/26 09:04:05;;;;;;;5.35;4.25;;;;;;;;;;4996966;28;20120;-85
2022/06/26 09:06:33;;;;;;;6.22;3.90;;;;;;;;;;5008531;28;20057;-85
2022/06/26 09:08:59;;;;;;;5.40;3.60;;;;;;;;;;5009136;28;20176;-84
2022/06/26 09:11:25;;;;;;;5.32;4.10;;;;;;;;;;5009181;28;20069;-85
2022/06/26 09:13:53;;;;;;;6.65;4.15;;;;;;;;;;5009034;28;20387;-85
2022/06/26 09:16:30;;;;;;;7.57;3.92;;;;;;;;;;5010772;28;20069;-85
2022/06/26 09:19:05;;;;;;;7.80;4.03;;;;;;;;;;5008136;28;20049;-85
2022/06/26 09:21:31;;;;;;;4.28;3.67;;;;;;;;;;5008508;28;20073;-84
2022/06/26 09:23:57;;;;;;;5.25;3.70;;;;;;;;;;5010020;28;20395;-85
2022/06/26 09:26:23;;;;;;;6.30;3.50;;;;;;;;;;5010233;28;20050;-85
2022/06/26 09:28:49;;;;;;;5.10;3.40;;;;;;;;;;5007563;28;20129;-85
2022/06/26 09:31:23;;;;;;;3.72;2.70;;;;;;;;;;5008206;28;20073;-85
2022/06/26 09:33:49;;;;;;;3.65;2.83;;;;;;;;;;5008445;28;20045;-85
2022/06/26 09:36:16;;;;;;;4.57;2.90;;;;;;;;;;5007385;28;20453;-85
2022/06/26 09:38:48;;;;;;;5.00;2.80;;;;;;;;;;5009064;28;20517;-85
2022/06/26 09:41:14;;;;;;;3.72;2.40;;;;;;;;;;5007888;28;20388;-85
2022/06/26 09:43:44;;;;;;;4.22;3.00;;;;;;;;;;5008945;28;20046;-85
2022/06/26 09:46:11;;;;;;;3.47;2.70;;;;;;;;;;4992003;28;20058;-84
2022/06/26 09:48:38;;;;;;;3.70;2.50;;;;;;;;;;5010128;28;20471;-85
2022/06/26 09:51:05;;;;;;;3.35;2.47;;;;;;;;;;5007995;28;20045;-85
2022/06/26 09:53:31;;;;;;;4.13;2.50;;;;;;;;;;5009650;28;20046;-85
2022/06/26 09:55:59;;;;;;;3.72;2.65;;;;;;;;;;5007958;28;20100;-86
2022/06/26 09:58:25;;;;;;;5.13;2.65;;;;;;;;;;5008029;28;20068;-85
2022/06/26 10:06:26;;;;;;;3.85;2.33;;;;;;;;;;5024905;28;20058;-86
2022/06/26 10:08:53;;;;;;;3.25;2.38;;;;;;;;;;5008737;28;20045;-86
2022/06/26 10:11:20;;;;;;;4.60;2.30;;;;;;;;;;4991566;28;20072;-86
2022/06/26 10:13:46;;;;;;;4.72;2.40;;;;;;;;;;5008890;28;20074;-85
2022/06/26 10:16:15;;;;;;;4.03;2.53;;;;;;;;;;5007087;28;20892;-86
2022/06/26 10:19:00;;;;;;;4.18;2.40;;;;;;;;;;5005502;28;20558;-86
2022/06/26 10:21:26;;;;;;;5.10;2.90;;;;;;;;;;4997670;28;20138;-87
2022/06/26 10:24:01;;;;;;;3.70;2.55;;;;;;;;;;4988912;28;20089;-87
2022/06/26 10:26:27;;;;;;;3.58;2.70;;;;;;;;;;4991716;28;20056;-87
2022/06/26 10:29:02;;;;;;;4.35;2.80;;;;;;;;;;5008267;28;20429;-87
2022/06/26 10:31:33;;;;;;;5.18;2.83;;;;;;;;;;5007764;28;20049;-87
2022/06/26 10:34:14;;;;;;;5.45;3.03;;;;;;;;;;5012075;28;20057;-87
2022/06/26 10:36:40;;;;;;;3.85;3.00;;;;;;;;;;5012908;28;20188;-87
2022/06/26 10:39:07;;;;;;;3.97;2.83;;;;;;;;;;5008081;28;20512;-87
2022/06/26 10:44:48;;;;;;;4.97;3.50;;;;;;;;;;4992535;28;20073;-86
2022/06/26 10:47:15;;;;;;;4.28;3.30;;;;;;;;;;4987981;28;20058;-87
2022/06/26 10:49:49;;;;;;;5.20;3.42;;;;;;;;;;4976394;28;20050;-86
2022/06/26 10:52:25;;;;;;;5.63;3.15;;;;;;;;;;5009936;28;20133;-86
2022/06/26 10:54:52;;;;;;;5.68;3.80;;;;;;;;;;4994285;28;20133;-86
2022/06/26 10:57:24;;;;;;;5.28;3.40;;;;;;;;;;5010343;28;20049;-85
2022/06/26 10:59:51;;;;;;;5.25;3.30;;;;;;;;;;5013349;28;20132;-86
2022/06/26 11:02:17;;;;;;;5.10;3.90;;;;;;;;;;4978079;28;20090;-87
2022/06/26 11:04:44;;;;;;;5.93;3.58;;;;;;;;;;4975960;28;20045;-86
2022/06/26 11:07:11;;;;;;;4.25;3.75;;;;;;;;;;5011548;28;20129;-85
2022/06/26 11:09:37;;;;;;;5.15;3.90;;;;;;;;;;5011962;28;20502;-89
2022/06/26 11:12:04;;;;;;;7.60;4.20;;;;;;;;;;5010518;28;20550;-87
2022/06/26 11:14:31;;;;;;;4.80;3.80;;;;;;;;;;4995090;28;20398;-87
2022/06/26 11:16:57;;;;;;;6.03;3.60;;;;;;;;;;4994188;28;20446;-86
2022/06/26 11:19:24;;;;;;;5.30;3.63;;;;;;;;;;4995573;28;20089;-87
2022/06/26 11:21:50;;;;;;;5.32;4.13;;;;;;;;;;4995161;28;20046;-87
2022/06/26 11:24:16;;;;;;;4.60;3.63;;;;;;;;;;5010676;28;20046;-87
2022/06/26 11:26:42;;;;;;;6.45;3.83;;;;;;;;;;4969503;28;20090;-86
2022/06/26 11:29:09;;;;;;;5.35;3.38;;;;;;;;;;4992216;28;20085;-87
2022/06/26 11:31:35;;;;;;;5.20;3.40;;;;;;;;;;4994935;28;20072;-87
2022/06/26 11:34:12;;;;;;;6.35;3.33;;;;;;;;;;4977886;28;20103;-87
2022/06/26 11:36:49;;;;;;;4.68;3.35;;;;;;;;;;4991532;28;20093;-87
2022/06/26 11:39:15;;;;;;;6.20;3.45;;;;;;;;;;5011379;28;20061;-87
2022/06/26 11:41:41;;;;;;;4.00;3.10;;;;;;;;;;4977791;28;20049;-86
2022/06/26 11:44:07;;;;;;;5.80;3.70;;;;;;;;;;4993533;28;20049;-87
2022/06/26 11:46:33;;;;;;;5.13;3.55;;;;;;;;;;4994785;28;20537;-87
2022/06/26 11:48:59;;;;;;;4.28;3.60;;;;;;;;;;5011734;28;20047;-87
2022/06/26 11:51:30;;;;;;;6.20;3.35;;;;;;;;;;5012179;28;20099;-87
2022/06/26 11:53:56;;;;;;;6.60;3.90;;;;;;;;;;5010550;28;20038;-87
2022/06/26 11:56:23;;;;;;;4.82;3.65;;;;;;;;;;5011165;28;20085;-87
2022/06/26 11:58:50;;;;;;;5.63;3.90;;;;;;;;;;5002670;28;20069;-87
2022/06/26 12:01:16;;;;;;;6.72;3.53;;;;;;;;;;5010494;28;20074;-87
2022/06/26 12:03:50;;;;;;;4.93;3.60;;;;;;;;;;5010869;28;20215;-86
2022/06/26 12:06:29;;;;;;;5.95;3.40;;;;;;;;;;5010684;28;20402;-87
2022/06/26 12:08:56;;;;;;;7.15;3.97;;;;;;;;;;5009815;28;20053;-87
2022/06/26 12:11:24;;;;;;;7.20;4.20;;;;;;;;;;5010605;28;20045;-87
2022/06/26 12:13:50;;;;;;;6.05;4.13;;;;;;;;;;5009754;28;20057;-87
2022/06/26 12:16:18;;;;;;;7.18;4.30;;;;;;;;;;5011250;28;20486;-87
2022/06/26 12:18:44;;;;;;;5.07;4.03;;;;;;;;;;5010427;28;20422;-87
2022/06/26 12:21:20;;;;;;;5.25;4.25;;;;;;;;;;5011449;28;20049;-87
2022/06/26 12:23:47;;;;;;;5.82;4.40;;;;;;;;;;5009188;28;20077;-87
2022/06/26 12:26:14;;;;;;;7.35;5.47;;;;;;;;;;5010045;28;20045;-87
2022/06/26 12:28:48;;;;;;;6.18;4.85;;;;;;;;;;5010190;28;20053;-87
2022/06/26 12:31:15;;;;;;;9.90;5.57;;;;;;;;;;5009995;28;20076;-87
2022/06/26 12:33:41;;;;;;;6.50;5.57;;;;;;;;;;5008885;28;20747;-86
2022/06/26 12:36:07;;;;;;;7.20;6.60;;;;;;;;;;5006143;28;20200;-87
2022/06/26 12:38:34;;;;;;;8.13;7.32;;;;;;;;;;4990408;28;20594;-87
2022/06/26 12:41:01;;;;;;;8.70;7.97;;;;;;;;;;5005829;28;20049;-88
2022/06/26 12:43:27;;;;;;;8.63;7.72;;;;;;;;;;5011312;28;20042;-87
2022/06/26 12:45:53;;;;;;;8.20;7.50;;;;;;;;;;5009970;28;20042;-87
2022/06/26 12:48:19;;;;;;;7.43;6.80;;;;;;;;;;4993172;28;20436;-86
2022/06/26 12:50:45;;;;;;;8.48;7.78;;;;;;;;;;5010488;28;20050;-86
2022/06/26 12:53:12;;;;;;;7.70;7.00;;;;;;;;;;5008082;28;20417;-89
2022/06/26 12:55:38;;;;;;;7.80;5.70;;;;;;;;;;5005646;28;20512;-86
2022/06/26 12:58:04;;;;;;;6.53;5.20;;;;;;;;;;5010564;28;20054;-86
2022/06/26 13:00:30;;;;;;;5.93;4.65;;;;;;;;;;5009941;28;20064;-86
2022/06/26 13:02:56;;;;;;;8.00;4.60;;;;;;;;;;4992601;28;20050;-86
2022/06/26 13:05:22;;;;;;;4.40;3.90;;;;;;;;;;4992116;28;20100;-86
2022/06/26 13:07:48;;;;;;;6.25;3.63;;;;;;;;;;5010853;28;20158;-86
2022/06/26 13:10:15;;;;;;;4.75;3.30;;;;;;;;;;5008703;28;20069;-86
2022/06/26 13:12:41;;;;;;;4.13;3.00;;;;;;;;;;5004819;28;20479;-86
2022/06/26 13:15:07;;;;;;;4.03;2.63;;;;;;;;;;5015999;28;20085;-86
2022/06/26 13:17:33;;;;;;;4.68;2.88;;;;;;;;;;4976715;28;20049;-86
2022/06/26 13:20:00;;;;;;;4.50;3.10;;;;;;;;;;4991476;28;20465;-86
2022/06/26 13:22:26;;;;;;;3.30;3.00;;;;;;;;;;5010946;28;20064;-86
2022/06/26 13:24:52;;;;;;;4.00;2.83;;;;;;;;;;5009479;28;20050;-86
2022/06/26 13:27:18;;;;;;;3.22;2.60;;;;;;;;;;4973053;28;20081;-85
2022/06/26 13:29:44;;;;;;;5.15;2.60;;;;;;;;;;5001793;28;20049;-86
2022/06/26 13:32:10;;;;;;;4.47;2.90;;;;;;;;;;5007832;28;20050;-86
2022/06/26 13:34:36;;;;;;;4.97;3.40;;;;;;;;;;4989444;28;20050;-86
2022/06/26 13:37:02;;;;;;;4.45;3.28;;;;;;;;;;4975805;28;20529;-85
2022/06/26 13:39:28;;;;;;;3.92;3.38;;;;;;;;;;4992856;28;20038;-86
2022/06/26 13:41:54;;;;;;;4.32;3.05;;;;;;;;;;4992114;28;20053;-86
2022/06/26 13:44:20;;;;;;;4.38;3.20;;;;;;;;;;5010001;28;20049;-85
2022/06/26 13:46:47;;;;;;;4.95;3.00;;;;;;;;;;5009864;28;20041;-86
2022/06/26 13:49:13;;;;;;;5.07;3.20;;;;;;;;;;5007304;28;20053;-86
2022/06/26 13:51:39;;;;;;;4.30;3.15;;;;;;;;;;5009004;28;20495;-85
2022/06/26 13:54:06;;;;;;;4.88;3.40;;;;;;;;;;4975777;28;20053;-85
2022/06/26 13:56:32;;;;;;;6.43;3.70;;;;;;;;;;4992290;28;20458;-86
2022/06/26 13:58:58;;;;;;;3.75;3.40;;;;;;;;;;5001528;28;20057;-84
2022/06/26 14:01:24;;;;;;;5.47;3.80;;;;;;;;;;5008784;28;20054;-85
2022/06/26 14:03:51;;;;;;;5.22;3.50;;;;;;;;;;5009024;28;20046;-88
2022/06/26 14:06:17;;;;;;;4.45;3.55;;;;;;;;;;5009259;28;20057;-88
2022/06/26 14:08:43;;;;;;;4.10;3.60;;;;;;;;;;5011465;28;20042;-88
2022/06/26 14:11:09;;;;;;;5.13;3.75;;;;;;;;;;5014041;28;20120;-89
2022/06/26 14:13:35;;;;;;;5.90;3.85;;;;;;;;;;5007899;28;20140;-87
2022/06/26 14:16:01;;;;;;;5.03;3.70;;;;;;;;;;5014155;28;20121;-88
2022/06/26 14:18:27;;;;;;;5.78;3.83;;;;;;;;;;5011624;28;20056;-86
2022/06/26 14:20:53;;;;;;;5.72;4.13;;;;;;;;;;5013898;28;20112;-86
2022/06/26 14:26:04;;;;;;;5.38;4.47;;;;;;;;;;5012574;28;20396;-85
2022/06/26 14:28:31;;;;;;;4.47;4.07;;;;;;;;;;5009827;28;20096;-87
2022/06/26 14:30:58;;;;;;;5.13;4.13;;;;;;;;;;5012053;28;20049;-86
2022/06/26 14:33:24;;;;;;;5.15;4.60;;;;;;;;;;5010994;28;20052;-86
2022/06/26 14:35:50;;;;;;;5.97;4.78;;;;;;;;;;5012425;28;20398;-86
2022/06/26 14:38:18;;;;;;;6.70;5.40;;;;;;;;;;5011069;28;20302;-86
2022/06/26 14:40:44;;;;;;;6.90;5.20;;;;;;;;;;5008860;28;20046;-86
2022/06/26 14:43:10;;;;;;;7.13;5.00;;;;;;;;;;5009167;28;20046;-85
2022/06/26 14:45:36;;;;;;;8.75;5.68;;;;;;;;;;5012783;28;20497;-85
2022/06/26 14:48:03;;;;;;;7.50;6.18;;;;;;;;;;5010834;28;20045;-86
2022/06/26 14:50:29;;;;;;;7.85;6.18;;;;;;;;;;4995538;28;20510;-85
2022/06/26 14:52:55;;;;;;;6.63;6.03;;;;;;;;;;5011846;28;20080;-85